sensor_id;sensor_type;location;lat;lon;timestamp;temperature;humidity
17859;DHT22;35426;30.698;104.050;2023-04-01T00:00:15;19.30;99.90
17859;DHT22;35426;30.698;104.050;2023-04-01T00:02:51;19.30;99.90
17859;DHT22;35426;30.698;104.050;2023-04-01T00:05:35;19.40;99.90
17859;DHT22;35426;30.698;104.050;2023-04-01T00:08:15;19.50;99.90
17859;DHT22;35426;30.698;104.050;2023-04-01T00:10:56;19.60;99.90
17859;DHT22;35426;30.698;104.050;2023-04-01T00:13:31;19.60;99.90
17859;DHT22;35426;30.698;104.050;2023-04-01T00:16:08;19.70;99.90
17859;DHT22;35426;30.698;104.050;2023-04-01T00:18:52;19.60;99.90
17859;DHT22;35426;30.698;104.050;2023-04-01T00:21:26;19.80;99.90
17859;DHT22;35426;30.698;104.050;2023-04-01T00:24:05;19.80;99.90
17859;DHT22;35426;30.698;104.050;2023-04-01T00:26:47;19.90;99.90
17859;DHT22;35426;30.698;104.050;2023-04-01T00:29:23;19.80;99.90
17859;DHT22;35426;30.698;104.050;2023-04-01T00:32:02;19.80;99.90
17859;DHT22;35426;30.698;104.050;2023-04-01T00:34:36;19.90;99.90
17859;DHT22;35426;30.698;104.050;2023-04-01T00:37:14;20.00;99.90
17859;DHT22;35426;30.698;104.050;2023-04-01T00:39:51;20.10;99.90
17859;DHT22;35426;30.698;104.050;2023-04-01T00:42:31;20.20;99.90
17859;DHT22;35426;30.698;104.050;2023-04-01T00:45:26;20.20;99.90
17859;DHT22;35426;30.698;104.050;2023-04-01T00:48:07;20.40;99.90
17859;DHT22;35426;30.698;104.050;2023-04-01T00:50:50;20.50;99.90
17859;DHT22;35426;30.698;104.050;2023-04-01T00:53:30;20.60;99.90
17859;DHT22;35426;30.698;104.050;2023-04-01T00:56:09;20.60;99.90
17859;DHT22;35426;30.698;104.050;2023-04-01T00:58:50;20.80;99.90
17859;DHT22;35426;30.698;104.050;2023-04-01T01:01:29;21.20;99.90
17859;DHT22;35426;30.698;104.050;2023-04-01T01:04:18;21.50;99.90
17859;DHT22;35426;30.698;104.050;2023-04-01T01:07:13;22.00;99.90
17859;DHT22;35426;30.698;104.050;2023-04-01T01:09:56;22.60;99.90
17859;DHT22;35426;30.698;104.050;2023-04-01T01:12:47;23.00;99.90
17859;DHT22;35426;30.698;104.050;2023-04-01T01:15:43;23.30;99.90
17859;DHT22;35426;30.698;104.050;2023-04-01T01:18:32;23.90;99.90
17859;DHT22;35426;30.698;104.050;2023-04-01T01:25:04;24.90;99.90
17859;DHT22;35426;30.698;104.050;2023-04-01T01:28:04;25.50;99.90
17859;DHT22;35426;30.698;104.050;2023-04-01T01:30:46;26.30;99.90
17859;DHT22;35426;30.698;104.050;2023-04-01T01:33:58;26.30;99.90
17859;DHT22;35426;30.698;104.050;2023-04-01T01:36:58;26.80;99.90
17859;DHT22;35426;30.698;104.050;2023-04-01T01:39:42;27.10;99.90
17859;DHT22;35426;30.698;104.050;2023-04-01T01:42:25;26.80;99.90
17859;DHT22;35426;30.698;104.050;2023-04-01T01:45:06;26.80;99.90
17859;DHT22;35426;30.698;104.050;2023-04-01T01:47:46;26.90;99.90
17859;DHT22;35426;30.698;104.050;2023-04-01T01:50:32;26.50;99.90
17859;DHT22;35426;30.698;104.050;2023-04-01T01:53:27;26.30;99.90
17859;DHT22;35426;30.698;104.050;2023-04-01T01:56:19;26.20;99.90
17859;DHT22;35426;30.698;104.050;2023-04-01T01:58:59;26.60;99.90
17859;DHT22;35426;30.698;104.050;2023-04-01T02:01:42;27.20;99.90
17859;DHT22;35426;30.698;104.050;2023-04-01T02:04:20;27.10;99.90
17859;DHT22;35426;30.698;104.050;2023-04-01T02:07:02;27.40;99.90
17859;DHT22;35426;30.698;104.050;2023-04-01T02:09:38;27.50;99.90
17859;DHT22;35426;30.698;104.050;2023-04-01T02:12:16;27.50;99.90
17859;DHT22;35426;30.698;104.050;2023-04-01T02:15:04;27.40;99.90
17859;DHT22;35426;30.698;104.050;2023-04-01T02:17:50;27.00;99.90
17859;DHT22;35426;30.698;104.050;2023-04-01T02:20:30;27.20;99.90
17859;DHT22;35426;30.698;104.050;2023-04-01T02:23:08;27.20;99.90
17859;DHT22;35426;30.698;104.050;2023-04-01T02:25:50;27.20;99.90
17859;DHT22;35426;30.698;104.050;2023-04-01T02:28:29;27.60;99.90
17859;DHT22;35426;30.698;104.050;2023-04-01T02:31:06;27.00;99.90
17859;DHT22;35426;30.698;104.050;2023-04-01T02:33:56;26.80;99.90
17859;DHT22;35426;30.698;104.050;2023-04-01T02:36:43;27.40;99.90
17859;DHT22;35426;30.698;104.050;2023-04-01T02:39:23;27.70;99.90
17859;DHT22;35426;30.698;104.050;2023-04-01T02:42:12;26.60;99.90
17859;DHT22;35426;30.698;104.050;2023-04-01T02:45:02;26.00;99.90
17859;DHT22;35426;30.698;104.050;2023-04-01T02:47:49;26.00;99.90
17859;DHT22;35426;30.698;104.050;2023-04-01T02:50:23;26.30;99.90
17859;DHT22;35426;30.698;104.050;2023-04-01T02:53:29;27.10;99.90
17859;DHT22;35426;30.698;104.050;2023-04-01T02:56:08;27.60;99.90
17859;DHT22;35426;30.698;104.050;2023-04-01T02:58:53;27.80;99.90
17859;DHT22;35426;30.698;104.050;2023-04-01T03:01:41;27.90;99.90
17859;DHT22;35426;30.698;104.050;2023-04-01T03:04:27;28.00;99.90
17859;DHT22;35426;30.698;104.050;2023-04-01T03:07:07;27.60;99.90
17859;DHT22;35426;30.698;104.050;2023-04-01T03:09:48;28.20;99.90
17859;DHT22;35426;30.698;104.050;2023-04-01T03:12:36;28.20;99.90
17859;DHT22;35426;30.698;104.050;2023-04-01T03:15:29;28.20;99.90
17859;DHT22;35426;30.698;104.050;2023-04-01T03:18:21;27.70;99.90
17859;DHT22;35426;30.698;104.050;2023-04-01T03:21:20;28.40;99.90
17859;DHT22;35426;30.698;104.050;2023-04-01T03:23:57;28.50;99.90
17859;DHT22;35426;30.698;104.050;2023-04-01T03:26:34;28.00;99.90
17859;DHT22;35426;30.698;104.050;2023-04-01T03:29:11;28.00;99.90
17859;DHT22;35426;30.698;104.050;2023-04-01T03:32:03;28.20;99.90
17859;DHT22;35426;30.698;104.050;2023-04-01T03:34:44;27.60;99.90
17859;DHT22;35426;30.698;104.050;2023-04-01T03:37:21;27.70;99.90
17859;DHT22;35426;30.698;104.050;2023-04-01T03:40:09;26.60;99.90
17859;DHT22;35426;30.698;104.050;2023-04-01T03:42:47;26.80;99.90
17859;DHT22;35426;30.698;104.050;2023-04-01T03:45:29;27.10;99.90
17859;DHT22;35426;30.698;104.050;2023-04-01T03:48:12;27.60;99.90
17859;DHT22;35426;30.698;104.050;2023-04-01T03:50:52;28.00;99.90
17859;DHT22;35426;30.698;104.050;2023-04-01T03:53:29;28.20;99.90
17859;DHT22;35426;30.698;104.050;2023-04-01T03:56:20;27.80;99.90
17859;DHT22;35426;30.698;104.050;2023-04-01T03:59:05;27.60;99.90
17859;DHT22;35426;30.698;104.050;2023-04-01T04:01:49;26.90;99.90
17859;DHT22;35426;30.698;104.050;2023-04-01T04:04:38;26.40;99.90
17859;DHT22;35426;30.698;104.050;2023-04-01T04:07:12;26.40;99.90
17859;DHT22;35426;30.698;104.050;2023-04-01T04:10:12;26.10;99.90
17859;DHT22;35426;30.698;104.050;2023-04-01T04:12:51;26.50;99.90
17859;DHT22;35426;30.698;104.050;2023-04-01T04:15:32;26.30;99.90
17859;DHT22;35426;30.698;104.050;2023-04-01T04:18:09;26.30;99.90
17859;DHT22;35426;30.698;104.050;2023-04-01T04:20:51;26.80;99.90
17859;DHT22;35426;30.698;104.050;2023-04-01T04:23:38;26.70;99.90
17859;DHT22;35426;30.698;104.050;2023-04-01T04:26:25;26.30;99.90
17859;DHT22;35426;30.698;104.050;2023-04-01T04:29:18;26.50;99.90
17859;DHT22;35426;30.698;104.050;2023-04-01T04:32:05;26.20;99.90
17859;DHT22;35426;30.698;104.050;2023-04-01T04:34:49;26.10;99.90
17859;DHT22;35426;30.698;104.050;2023-04-01T04:37:47;26.40;99.90
17859;DHT22;35426;30.698;104.050;2023-04-01T04:40:30;26.50;99.90
17859;DHT22;35426;30.698;104.050;2023-04-01T04:43:19;26.50;99.90
17859;DHT22;35426;30.698;104.050;2023-04-01T04:45:57;26.80;99.90
17859;DHT22;35426;30.698;104.050;2023-04-01T04:48:37;26.80;99.90
17859;DHT22;35426;30.698;104.050;2023-04-01T04:51:16;26.70;99.90
17859;DHT22;35426;30.698;104.050;2023-04-01T04:54:04;26.50;99.90
17859;DHT22;35426;30.698;104.050;2023-04-01T04:56:54;27.00;99.90
17859;DHT22;35426;30.698;104.050;2023-04-01T04:59:56;27.10;99.90
17859;DHT22;35426;30.698;104.050;2023-04-01T05:02:51;26.90;99.90
17859;DHT22;35426;30.698;104.050;2023-04-01T05:05:30;27.20;99.90
17859;DHT22;35426;30.698;104.050;2023-04-01T05:08:10;27.30;99.90
17859;DHT22;35426;30.698;104.050;2023-04-01T05:11:10;27.30;99.90
17859;DHT22;35426;30.698;104.050;2023-04-01T05:13:49;27.30;99.90
17859;DHT22;35426;30.698;104.050;2023-04-01T05:16:32;27.20;99.90
17859;DHT22;35426;30.698;104.050;2023-04-01T05:19:13;27.20;99.90
17859;DHT22;35426;30.698;104.050;2023-04-01T05:21:52;27.40;99.90
17859;DHT22;35426;30.698;104.050;2023-04-01T05:24:37;27.20;99.90
17859;DHT22;35426;30.698;104.050;2023-04-01T05:27:27;27.10;99.90
17859;DHT22;35426;30.698;104.050;2023-04-01T05:30:15;26.90;99.90
17859;DHT22;35426;30.698;104.050;2023-04-01T05:33:12;26.30;99.90
17859;DHT22;35426;30.698;104.050;2023-04-01T05:35:54;26.60;99.90
17859;DHT22;35426;30.698;104.050;2023-04-01T05:38:39;26.40;99.90
17859;DHT22;35426;30.698;104.050;2023-04-01T05:41:22;26.10;99.90
17859;DHT22;35426;30.698;104.050;2023-04-01T05:44:10;26.20;99.90
17859;DHT22;35426;30.698;104.050;2023-04-01T05:47:01;25.80;99.90
17859;DHT22;35426;30.698;104.050;2023-04-01T05:49:40;25.80;99.90
17859;DHT22;35426;30.698;104.050;2023-04-01T05:52:18;25.60;99.90
17859;DHT22;35426;30.698;104.050;2023-04-01T05:55:16;25.60;99.90
17859;DHT22;35426;30.698;104.050;2023-04-01T05:58:11;25.80;99.90
17859;DHT22;35426;30.698;104.050;2023-04-01T06:01:19;25.70;99.90
17859;DHT22;35426;30.698;104.050;2023-04-01T06:04:00;25.50;99.90
17859;DHT22;35426;30.698;104.050;2023-04-01T06:06:47;26.00;99.90
17859;DHT22;35426;30.698;104.050;2023-04-01T06:09:37;26.30;99.90
17859;DHT22;35426;30.698;104.050;2023-04-01T06:15:39;26.60;99.90
17859;DHT22;35426;30.698;104.050;2023-04-01T06:18:45;26.70;99.90
17859;DHT22;35426;30.698;104.050;2023-04-01T06:21:53;26.90;99.90
17859;DHT22;35426;30.698;104.050;2023-04-01T06:25:16;26.90;99.90
17859;DHT22;35426;30.698;104.050;2023-04-01T06:28:03;26.60;99.90
17859;DHT22;35426;30.698;104.050;2023-04-01T06:30:45;26.80;99.90
17859;DHT22;35426;30.698;104.050;2023-04-01T06:33:49;26.20;99.90
17859;DHT22;35426;30.698;104.050;2023-04-01T06:36:49;26.30;99.90
17859;DHT22;35426;30.698;104.050;2023-04-01T06:42:59;26.80;99.90
17859;DHT22;35426;30.698;104.050;2023-04-01T06:46:09;27.00;99.90
17859;DHT22;35426;30.698;104.050;2023-04-01T06:49:33;27.20;99.90
17859;DHT22;35426;30.698;104.050;2023-04-01T06:52:33;27.00;99.90
17859;DHT22;35426;30.698;104.050;2023-04-01T06:55:46;26.80;99.90
17859;DHT22;35426;30.698;104.050;2023-04-01T06:58:50;26.80;99.90
17859;DHT22;35426;30.698;104.050;2023-04-01T07:01:36;27.00;99.90
17859;DHT22;35426;30.698;104.050;2023-04-01T07:04:15;26.90;99.90
17859;DHT22;35426;30.698;104.050;2023-04-01T07:06:59;27.00;99.90
17859;DHT22;35426;30.698;104.050;2023-04-01T07:10:02;27.20;99.90
17859;DHT22;35426;30.698;104.050;2023-04-01T07:13:06;27.10;99.90
17859;DHT22;35426;30.698;104.050;2023-04-01T07:16:16;26.00;99.90
17859;DHT22;35426;30.698;104.050;2023-04-01T07:18:57;25.60;99.90
17859;DHT22;35426;30.698;104.050;2023-04-01T07:22:04;25.80;99.90
17859;DHT22;35426;30.698;104.050;2023-04-01T07:25:18;26.00;99.90
17859;DHT22;35426;30.698;104.050;2023-04-01T07:28:42;26.30;99.90
17859;DHT22;35426;30.698;104.050;2023-04-01T07:31:54;26.10;99.90
17859;DHT22;35426;30.698;104.050;2023-04-01T07:34:55;25.60;99.90
17859;DHT22;35426;30.698;104.050;2023-04-01T07:37:50;25.10;99.90
17859;DHT22;35426;30.698;104.050;2023-04-01T07:40:49;25.50;99.90
17859;DHT22;35426;30.698;104.050;2023-04-01T07:44:01;25.60;99.90
17859;DHT22;35426;30.698;104.050;2023-04-01T07:50:07;25.40;99.90
17859;DHT22;35426;30.698;104.050;2023-04-01T07:53:06;25.00;99.90
17859;DHT22;35426;30.698;104.050;2023-04-01T07:55:48;24.70;99.90
17859;DHT22;35426;30.698;104.050;2023-04-01T07:58:35;25.00;99.90
17859;DHT22;35426;30.698;104.050;2023-04-01T08:01:39;25.50;99.90
17859;DHT22;35426;30.698;104.050;2023-04-01T08:04:34;25.50;99.90
17859;DHT22;35426;30.698;104.050;2023-04-01T08:07:45;25.40;99.90
17859;DHT22;35426;30.698;104.050;2023-04-01T08:11:02;25.20;99.90
17859;DHT22;35426;30.698;104.050;2023-04-01T08:14:09;25.40;99.90
17859;DHT22;35426;30.698;104.050;2023-04-01T08:17:16;25.80;99.90
17859;DHT22;35426;30.698;104.050;2023-04-01T08:20:10;25.50;99.90
17859;DHT22;35426;30.698;104.050;2023-04-01T08:22:57;25.60;99.90
17859;DHT22;35426;30.698;104.050;2023-04-01T08:25:56;25.60;99.90
17859;DHT22;35426;30.698;104.050;2023-04-01T08:28:51;25.10;99.90
17859;DHT22;35426;30.698;104.050;2023-04-01T08:31:43;24.90;99.90
17859;DHT22;35426;30.698;104.050;2023-04-01T08:34:30;24.70;99.90
17859;DHT22;35426;30.698;104.050;2023-04-01T08:37:34;24.70;99.90
17859;DHT22;35426;30.698;104.050;2023-04-01T08:43:58;25.00;99.90
17859;DHT22;35426;30.698;104.050;2023-04-01T08:53:45;24.60;99.90
17859;DHT22;35426;30.698;104.050;2023-04-01T08:56:36;24.50;99.90
17859;DHT22;35426;30.698;104.050;2023-04-01T09:06:22;24.50;99.90
17859;DHT22;35426;30.698;104.050;2023-04-01T09:09:28;25.00;99.90
17859;DHT22;35426;30.698;104.050;2023-04-01T09:12:42;24.80;99.90
17859;DHT22;35426;30.698;104.050;2023-04-01T09:15:42;24.50;99.90
17859;DHT22;35426;30.698;104.050;2023-04-01T09:18:48;24.40;99.90
17859;DHT22;35426;30.698;104.050;2023-04-01T09:24:57;24.00;99.90
17859;DHT22;35426;30.698;104.050;2023-04-01T09:27:40;24.20;99.90
17859;DHT22;35426;30.698;104.050;2023-04-01T09:30:48;24.40;99.90
17859;DHT22;35426;30.698;104.050;2023-04-01T09:34:06;24.30;99.90
17859;DHT22;35426;30.698;104.050;2023-04-01T09:37:26;24.50;99.90
17859;DHT22;35426;30.698;104.050;2023-04-01T09:40:42;24.70;99.90
17859;DHT22;35426;30.698;104.050;2023-04-01T09:44:02;24.70;99.90
17859;DHT22;35426;30.698;104.050;2023-04-01T09:47:32;24.40;99.90
17859;DHT22;35426;30.698;104.050;2023-04-01T09:50:32;24.20;99.90
17859;DHT22;35426;30.698;104.050;2023-04-01T09:53:37;24.10;99.90
17859;DHT22;35426;30.698;104.050;2023-04-01T09:56:57;24.10;99.90
17859;DHT22;35426;30.698;104.050;2023-04-01T10:16:52;24.10;99.90
17859;DHT22;35426;30.698;104.050;2023-04-01T10:23:49;23.90;99.90
17859;DHT22;35426;30.698;104.050;2023-04-01T10:27:08;23.80;99.90
17859;DHT22;35426;30.698;104.050;2023-04-01T10:33:39;23.80;99.90
17859;DHT22;35426;30.698;104.050;2023-04-01T10:36:49;23.60;99.90
17859;DHT22;35426;30.698;104.050;2023-04-01T10:40:26;23.50;99.90
17859;DHT22;35426;30.698;104.050;2023-04-01T10:44:09;23.50;99.90
17859;DHT22;35426;30.698;104.050;2023-04-01T10:47:13;23.30;99.90
17859;DHT22;35426;30.698;104.050;2023-04-01T10:57:39;22.80;99.90
17859;DHT22;35426;30.698;104.050;2023-04-01T11:04:48;22.70;99.90
17859;DHT22;35426;30.698;104.050;2023-04-01T11:18:12;22.70;99.90
17859;DHT22;35426;30.698;104.050;2023-04-01T11:24:58;22.50;99.90
17859;DHT22;35426;30.698;104.050;2023-04-01T11:32:00;22.20;99.90
17859;DHT22;35426;30.698;104.050;2023-04-01T11:42:19;22.00;99.90
17859;DHT22;35426;30.698;104.050;2023-04-01T11:45:35;21.90;99.90
17859;DHT22;35426;30.698;104.050;2023-04-01T11:51:43;21.60;99.90
17859;DHT22;35426;30.698;104.050;2023-04-01T11:55:00;21.70;99.90
17859;DHT22;35426;30.698;104.050;2023-04-01T11:57:58;21.60;99.90
17859;DHT22;35426;30.698;104.050;2023-04-01T12:01:13;21.60;99.90
17859;DHT22;35426;30.698;104.050;2023-04-01T12:04:42;21.60;99.90
17859;DHT22;35426;30.698;104.050;2023-04-01T12:10:58;21.60;99.90
17859;DHT22;35426;30.698;104.050;2023-04-01T12:13:55;21.60;99.90
17859;DHT22;35426;30.698;104.050;2023-04-01T12:17:08;21.60;99.90
17859;DHT22;35426;30.698;104.050;2023-04-01T12:19:51;21.50;99.90
17859;DHT22;35426;30.698;104.050;2023-04-01T12:22:43;21.60;99.90
17859;DHT22;35426;30.698;104.050;2023-04-01T12:25:47;21.50;99.90
17859;DHT22;35426;30.698;104.050;2023-04-01T12:28:52;21.50;99.90
17859;DHT22;35426;30.698;104.050;2023-04-01T12:31:44;21.50;99.90
17859;DHT22;35426;30.698;104.050;2023-04-01T12:34:45;21.60;99.90
17859;DHT22;35426;30.698;104.050;2023-04-01T12:37:47;21.60;99.90
17859;DHT22;35426;30.698;104.050;2023-04-01T12:40:56;21.60;99.90
17859;DHT22;35426;30.698;104.050;2023-04-01T12:44:10;21.50;99.90
17859;DHT22;35426;30.698;104.050;2023-04-01T12:47:29;21.40;99.90
17859;DHT22;35426;30.698;104.050;2023-04-01T12:50:32;21.30;99.90
17859;DHT22;35426;30.698;104.050;2023-04-01T12:53:33;21.30;99.90
17859;DHT22;35426;30.698;104.050;2023-04-01T12:56:16;21.40;99.90
17859;DHT22;35426;30.698;104.050;2023-04-01T12:59:46;21.30;99.90
17859;DHT22;35426;30.698;104.050;2023-04-01T13:02:40;21.30;99.90
17859;DHT22;35426;30.698;104.050;2023-04-01T13:05:52;21.30;99.90
17859;DHT22;35426;30.698;104.050;2023-04-01T13:08:46;21.30;99.90
17859;DHT22;35426;30.698;104.050;2023-04-01T13:11:43;21.30;99.90
17859;DHT22;35426;30.698;104.050;2023-04-01T13:17:53;20.90;99.90
17859;DHT22;35426;30.698;104.050;2023-04-01T13:20:59;20.80;99.90
17859;DHT22;35426;30.698;104.050;2023-04-01T13:24:05;20.60;99.90
17859;DHT22;35426;30.698;104.050;2023-04-01T13:26:57;20.60;99.90
17859;DHT22;35426;30.698;104.050;2023-04-01T13:29:59;20.60;99.90
17859;DHT22;35426;30.698;104.050;2023-04-01T13:32:44;20.70;99.90
17859;DHT22;35426;30.698;104.050;2023-04-01T13:35:36;20.70;99.90
17859;DHT22;35426;30.698;104.050;2023-04-01T13:38:51;20.80;99.90
17859;DHT22;35426;30.698;104.050;2023-04-01T13:41:54;20.80;99.90
17859;DHT22;35426;30.698;104.050;2023-04-01T13:44:48;20.70;99.90
17859;DHT22;35426;30.698;104.050;2023-04-01T13:48:02;20.60;99.90
17859;DHT22;35426;30.698;104.050;2023-04-01T13:54:33;20.60;99.90
17859;DHT22;35426;30.698;104.050;2023-04-01T14:01:09;20.60;99.90
17859;DHT22;35426;30.698;104.050;2023-04-01T14:04:21;20.60;99.90
17859;DHT22;35426;30.698;104.050;2023-04-01T14:07:29;20.60;99.90
17859;DHT22;35426;30.698;104.050;2023-04-01T14:10:27;20.60;99.90
17859;DHT22;35426;30.698;104.050;2023-04-01T14:13:37;20.50;99.90
17859;DHT22;35426;30.698;104.050;2023-04-01T14:16:47;20.50;99.90
17859;DHT22;35426;30.698;104.050;2023-04-01T14:28:06;20.50;99.90
17859;DHT22;35426;30.698;104.050;2023-04-01T14:31:20;20.50;99.90
17859;DHT22;35426;30.698;104.050;2023-04-01T14:34:10;20.30;99.90
17859;DHT22;35426;30.698;104.050;2023-04-01T14:37:32;20.40;99.90
17859;DHT22;35426;30.698;104.050;2023-04-01T14:40:38;20.30;99.90
17859;DHT22;35426;30.698;104.050;2023-04-01T14:44:01;20.30;99.90
17859;DHT22;35426;30.698;104.050;2023-04-01T14:50:09;20.40;99.90
17859;DHT22;35426;30.698;104.050;2023-04-01T14:53:16;20.50;99.90
17859;DHT22;35426;30.698;104.050;2023-04-01T14:56:10;20.50;99.90
17859;DHT22;35426;30.698;104.050;2023-04-01T14:58:59;20.30;99.90
17859;DHT22;35426;30.698;104.050;2023-04-01T15:01:50;20.40;99.90
17859;DHT22;35426;30.698;104.050;2023-04-01T15:04:53;20.40;99.90
17859;DHT22;35426;30.698;104.050;2023-04-01T15:08:20;20.40;99.90
17859;DHT22;35426;30.698;104.050;2023-04-01T15:11:24;20.40;99.90
17859;DHT22;35426;30.698;104.050;2023-04-01T15:14:46;20.50;99.90
17859;DHT22;35426;30.698;104.050;2023-04-01T15:17:44;20.30;99.90
17859;DHT22;35426;30.698;104.050;2023-04-01T15:24:03;20.40;99.90
17859;DHT22;35426;30.698;104.050;2023-04-01T15:27:06;20.50;99.90
17859;DHT22;35426;30.698;104.050;2023-04-01T15:33:52;20.60;99.90
17859;DHT22;35426;30.698;104.050;2023-04-01T15:36:43;20.60;99.90
17859;DHT22;35426;30.698;104.050;2023-04-01T15:39:51;20.60;99.90
17859;DHT22;35426;30.698;104.050;2023-04-01T15:42:50;20.50;99.90
17859;DHT22;35426;30.698;104.050;2023-04-01T15:45:44;20.40;99.90
17859;DHT22;35426;30.698;104.050;2023-04-01T15:48:50;20.40;99.90
17859;DHT22;35426;30.698;104.050;2023-04-01T15:51:49;20.30;99.90
17859;DHT22;35426;30.698;104.050;2023-04-01T16:01:27;20.40;99.90
17859;DHT22;35426;30.698;104.050;2023-04-01T16:04:31;20.40;99.90
17859;DHT22;35426;30.698;104.050;2023-04-01T16:07:30;20.30;99.90
17859;DHT22;35426;30.698;104.050;2023-04-01T16:13:55;20.20;99.90
17859;DHT22;35426;30.698;104.050;2023-04-01T16:16:44;20.10;99.90
17859;DHT22;35426;30.698;104.050;2023-04-01T16:19:58;20.10;99.90
17859;DHT22;35426;30.698;104.050;2023-04-01T16:22:40;20.10;99.90
17859;DHT22;35426;30.698;104.050;2023-04-01T16:25:32;20.10;99.90
17859;DHT22;35426;30.698;104.050;2023-04-01T16:28:22;20.20;99.90
17859;DHT22;35426;30.698;104.050;2023-04-01T16:31:04;20.30;99.90
17859;DHT22;35426;30.698;104.050;2023-04-01T16:33:47;20.30;99.90
17859;DHT22;35426;30.698;104.050;2023-04-01T16:36:32;20.20;99.90
17859;DHT22;35426;30.698;104.050;2023-04-01T16:39:29;20.30;99.90
17859;DHT22;35426;30.698;104.050;2023-04-01T16:42:31;20.30;99.90
17859;DHT22;35426;30.698;104.050;2023-04-01T16:45:29;20.40;99.90
17859;DHT22;35426;30.698;104.050;2023-04-01T16:48:12;20.40;99.90
17859;DHT22;35426;30.698;104.050;2023-04-01T16:51:02;20.50;99.90
17859;DHT22;35426;30.698;104.050;2023-04-01T16:53:52;20.50;99.90
17859;DHT22;35426;30.698;104.050;2023-04-01T16:56:43;20.50;99.90
17859;DHT22;35426;30.698;104.050;2023-04-01T16:59:26;20.50;99.90
17859;DHT22;35426;30.698;104.050;2023-04-01T17:02:16;20.50;99.90
17859;DHT22;35426;30.698;104.050;2023-04-01T17:05:01;20.40;99.90
17859;DHT22;35426;30.698;104.050;2023-04-01T17:07:54;20.50;99.90
17859;DHT22;35426;30.698;104.050;2023-04-01T17:10:44;20.50;99.90
17859;DHT22;35426;30.698;104.050;2023-04-01T17:13:50;20.70;99.90
17859;DHT22;35426;30.698;104.050;2023-04-01T17:23:00;20.70;99.90
17859;DHT22;35426;30.698;104.050;2023-04-01T17:25:50;20.50;99.90
17859;DHT22;35426;30.698;104.050;2023-04-01T17:28:56;20.50;99.90
17859;DHT22;35426;30.698;104.050;2023-04-01T17:31:49;20.40;99.90
17859;DHT22;35426;30.698;104.050;2023-04-01T17:34:42;20.30;99.90
17859;DHT22;35426;30.698;104.050;2023-04-01T17:37:29;20.30;99.90
17859;DHT22;35426;30.698;104.050;2023-04-01T17:40:27;20.20;99.90
17859;DHT22;35426;30.698;104.050;2023-04-01T17:43:14;20.10;99.90
17859;DHT22;35426;30.698;104.050;2023-04-01T17:45:54;20.00;99.90
17859;DHT22;35426;30.698;104.050;2023-04-01T17:48:40;20.00;99.90
17859;DHT22;35426;30.698;104.050;2023-04-01T17:51:24;20.00;99.90
17859;DHT22;35426;30.698;104.050;2023-04-01T17:54:17;20.10;99.90
17859;DHT22;35426;30.698;104.050;2023-04-01T17:57:06;20.10;99.90
17859;DHT22;35426;30.698;104.050;2023-04-01T18:00:00;19.80;99.90
17859;DHT22;35426;30.698;104.050;2023-04-01T18:02:46;19.80;99.90
17859;DHT22;35426;30.698;104.050;2023-04-01T18:05:31;19.80;99.90
17859;DHT22;35426;30.698;104.050;2023-04-01T18:08:17;19.80;99.90
17859;DHT22;35426;30.698;104.050;2023-04-01T18:11:05;19.50;99.90
17859;DHT22;35426;30.698;104.050;2023-04-01T18:14:01;19.80;99.90
17859;DHT22;35426;30.698;104.050;2023-04-01T18:17:00;19.90;99.90
17859;DHT22;35426;30.698;104.050;2023-04-01T18:19:46;19.90;99.90
17859;DHT22;35426;30.698;104.050;2023-04-01T18:22:27;19.90;99.90
17859;DHT22;35426;30.698;104.050;2023-04-01T18:25:16;19.70;99.90
17859;DHT22;35426;30.698;104.050;2023-04-01T18:27:54;19.60;99.90
17859;DHT22;35426;30.698;104.050;2023-04-01T18:30:32;19.60;99.90
17859;DHT22;35426;30.698;104.050;2023-04-01T18:33:18;19.70;99.90
17859;DHT22;35426;30.698;104.050;2023-04-01T18:36:05;19.60;99.90
17859;DHT22;35426;30.698;104.050;2023-04-01T18:38:48;19.60;99.90
17859;DHT22;35426;30.698;104.050;2023-04-01T18:41:35;19.50;99.90
17859;DHT22;35426;30.698;104.050;2023-04-01T18:44:28;19.40;99.90
17859;DHT22;35426;30.698;104.050;2023-04-01T18:47:21;19.40;99.90
17859;DHT22;35426;30.698;104.050;2023-04-01T18:50:07;19.40;99.90
17859;DHT22;35426;30.698;104.050;2023-04-01T18:52:47;19.30;99.90
17859;DHT22;35426;30.698;104.050;2023-04-01T18:55:34;19.20;99.90
17859;DHT22;35426;30.698;104.050;2023-04-01T18:58:33;19.20;99.90
17859;DHT22;35426;30.698;104.050;2023-04-01T19:01:17;19.30;99.90
17859;DHT22;35426;30.698;104.050;2023-04-01T19:07:47;19.10;99.90
17859;DHT22;35426;30.698;104.050;2023-04-01T19:10:36;19.00;99.90
17859;DHT22;35426;30.698;104.050;2023-04-01T19:13:26;19.00;99.90
17859;DHT22;35426;30.698;104.050;2023-04-01T19:16:13;19.20;99.90
17859;DHT22;35426;30.698;104.050;2023-04-01T19:19:05;19.10;99.90
17859;DHT22;35426;30.698;104.050;2023-04-01T19:21:42;19.20;99.90
17859;DHT22;35426;30.698;104.050;2023-04-01T19:24:40;19.20;99.90
17859;DHT22;35426;30.698;104.050;2023-04-01T19:27:27;19.30;99.90
17859;DHT22;35426;30.698;104.050;2023-04-01T19:30:23;19.20;99.90
17859;DHT22;35426;30.698;104.050;2023-04-01T19:33:08;19.10;99.90
17859;DHT22;35426;30.698;104.050;2023-04-01T19:35:51;19.00;99.90
17859;DHT22;35426;30.698;104.050;2023-04-01T19:38:30;18.90;99.90
17859;DHT22;35426;30.698;104.050;2023-04-01T19:41:16;19.00;99.90
17859;DHT22;35426;30.698;104.050;2023-04-01T19:44:01;19.00;99.90
17859;DHT22;35426;30.698;104.050;2023-04-01T19:46:43;19.10;99.90
17859;DHT22;35426;30.698;104.050;2023-04-01T19:49:43;19.20;99.90
17859;DHT22;35426;30.698;104.050;2023-04-01T19:52:23;19.30;99.90
17859;DHT22;35426;30.698;104.050;2023-04-01T19:55:05;19.20;99.90
17859;DHT22;35426;30.698;104.050;2023-04-01T19:57:46;19.10;99.90
17859;DHT22;35426;30.698;104.050;2023-04-01T20:00:25;19.00;99.90
17859;DHT22;35426;30.698;104.050;2023-04-01T20:03:07;18.90;99.90
17859;DHT22;35426;30.698;104.050;2023-04-01T20:06:13;19.00;99.90
17859;DHT22;35426;30.698;104.050;2023-04-01T20:09:21;18.90;99.90
17859;DHT22;35426;30.698;104.050;2023-04-01T20:12:30;18.70;99.90